Terminal Aerodrome Forecast
Issued by NWS Twin Cities, MN

Home | Current Version | Previous Version | Text Only | Print | Product List | Glossary On
Versions: 1 2 3 4 5 6 7 8 9 10 11 12 13 14 15 16 17 18 19 20 21 22 23 24 25 26
345
FTUS43 KMPX 281139
TAFMSP
TAF
KMSP 281139Z 2812/2918 13015G22KT P6SM -SHRA FEW015 BKN022 OVC040
     FM281600 18013G21KT P6SM SCT040
     FM282200 26015G25KT P6SM VCTS BKN040CB
     FM290000 27013G20KT P6SM BKN060
     FM290300 27007KT P6SM SKC=

USA.gov is the U.S. government's official web portal to all federal, state and local government web resources and services.